Time;durP1;ratioP1;P1;durP2;ratioP2;P2;SDS_P1;SDS_P2;PMS_P1;PMS_P2;Temp;Humidity;BMP_temperature;BMP_pressure;BME280_temperature;BME280_humidity;BME280_pressure;Samples;Min_cycle;Max_cycle;Signal;HPM_P1;HPM_P2
2021/11/02 00:01:38;;;;;;;222.93;99.17;;;;;;;-0.46;76.84;93860.19;1696039;83;20982;-54
2021/11/02 00:04:05;;;;;;;228.45;99.37;;;;;;;-0.47;76.68;93864.05;1696137;84;20958;-55
2021/11/02 00:06:33;;;;;;;200.43;92.70;;;;;;;-0.44;77.03;93852.48;1703620;83;20958;-55
2021/11/02 00:09:01;;;;;;;224.15;100.55;;;;;;;-0.37;76.83;93846.41;1686344;83;21018;-54
2021/11/02 00:11:28;;;;;;;211.18;93.90;;;;;;;-0.27;76.56;93838.02;1689919;83;21150;-55
2021/11/02 00:14:01;;;;;;;183.35;88.90;;;;;;;-0.21;76.27;93851.30;1694171;83;21061;-54
2021/11/02 00:16:31;;;;;;;198.57;89.95;;;;;;;-0.20;76.04;93848.17;1695757;83;21001;-55
2021/11/02 00:19:01;;;;;;;214.08;94.05;;;;;;;-0.25;75.98;93845.16;1701671;82;21498;-54
2021/11/02 00:21:29;;;;;;;220.25;102.20;;;;;;;-0.30;75.71;93840.95;1698961;83;21106;-55
2021/11/02 00:24:08;;;;;;;202.15;91.00;;;;;;;-0.34;75.73;93829.42;1693806;83;21155;-55
2021/11/02 00:26:24;;;;;;;191.90;84.87;;;;;;;-0.38;75.62;93831.96;1699260;83;21476;-54
2021/11/02 00:28:51;;;;;;;197.55;88.20;;;;;;;-0.48;75.57;93822.79;1712179;83;20942;-54
2021/11/02 00:31:18;;;;;;;225.13;97.50;;;;;;;-0.59;75.83;93831.55;1688705;82;21090;-54
2021/11/02 00:33:45;;;;;;;211.87;97.10;;;;;;;-0.69;75.80;93834.34;1695505;83;20963;-55
2021/11/02 00:36:13;;;;;;;224.98;96.12;;;;;;;-0.79;76.02;93827.11;1694914;83;21124;-54
2021/11/02 00:38:39;;;;;;;210.10;93.80;;;;;;;-0.82;76.19;93831.36;1708543;83;21086;-55
2021/11/02 00:41:06;;;;;;;189.00;89.52;;;;;;;-0.82;76.22;93828.66;1686566;84;21069;-53
2021/11/02 00:43:35;;;;;;;202.18;92.22;;;;;;;-0.81;76.24;93836.19;1669034;84;21550;-54
2021/11/02 00:46:03;;;;;;;186.85;90.85;;;;;;;-0.76;76.38;93837.11;1690627;83;21026;-54
2021/11/02 00:48:29;;;;;;;213.07;93.42;;;;;;;-0.74;76.19;93832.08;1692034;84;21811;-54
2021/11/02 00:50:57;;;;;;;186.57;89.70;;;;;;;-0.74;76.28;93833.42;1698736;83;21049;-55
2021/11/02 00:53:24;;;;;;;210.17;91.80;;;;;;;-0.67;76.41;93829.31;1671002;84;20978;-54
2021/11/02 00:55:51;;;;;;;210.97;95.07;;;;;;;-0.62;76.16;93827.55;1693913;84;20978;-54
2021/11/02 00:58:21;;;;;;;199.57;90.15;;;;;;;-0.57;76.04;93823.06;1707514;83;21066;-54
2021/11/02 01:00:47;;;;;;;217.77;93.03;;;;;;;-0.57;75.70;93815.72;1693359;83;21342;-54
2021/11/02 01:03:13;;;;;;;254.05;100.15;;;;;;;-0.57;75.48;93822.47;1687633;83;20954;-56
2021/11/02 01:05:40;;;;;;;271.32;109.12;;;;;;;-0.66;75.42;93810.59;1694280;83;21537;-54
2021/11/02 01:08:09;;;;;;;268.70;106.65;;;;;;;-0.72;75.26;93814.89;1689904;83;21078;-54
2021/11/02 01:10:38;;;;;;;279.57;108.92;;;;;;;-0.80;75.45;93818.83;1694196;83;20974;-55
2021/11/02 01:13:05;;;;;;;265.10;110.88;;;;;;;-0.85;75.36;93813.84;1691714;83;21523;-58
2021/11/02 01:15:32;;;;;;;234.95;94.87;;;;;;;-0.95;75.50;93810.05;1680208;84;20995;-55
2021/11/02 01:18:00;;;;;;;221.68;93.40;;;;;;;-1.03;75.53;93808.58;1695691;83;21490;-54
2021/11/02 01:20:28;;;;;;;225.15;91.05;;;;;;;-1.04;75.75;93811.66;1692421;84;21566;-54
2021/11/02 01:22:56;;;;;;;190.92;82.50;;;;;;;-1.06;75.77;93806.68;1686946;83;20966;-53
2021/11/02 01:25:24;;;;;;;165.10;71.65;;;;;;;-1.01;75.81;93804.12;1689977;83;21815;-54
2021/11/02 01:27:52;;;;;;;185.70;77.40;;;;;;;-1.06;75.79;93804.55;1694512;83;20931;-54
2021/11/02 01:30:20;;;;;;;200.93;77.72;;;;;;;-1.14;75.99;93805.78;1689557;83;21094;-55
2021/11/02 01:32:48;;;;;;;169.25;69.58;;;;;;;-1.17;76.13;93801.17;1699413;83;21031;-54
2021/11/02 01:35:15;;;;;;;172.93;70.30;;;;;;;-1.20;76.12;93799.25;1694369;83;20963;-55
2021/11/02 01:37:43;;;;;;;185.67;75.28;;;;;;;-1.25;76.20;93791.58;1695467;84;21327;-55
2021/11/02 01:40:12;;;;;;;177.17;71.60;;;;;;;-1.30;76.22;93786.61;1692895;83;21482;-54
2021/11/02 01:42:41;;;;;;;193.93;82.05;;;;;;;-1.28;76.30;93791.80;1679686;83;21046;-54
2021/11/02 01:45:11;;;;;;;196.30;80.97;;;;;;;-1.32;76.10;93791.64;1708319;83;21023;-54
2021/11/02 01:47:44;;;;;;;182.70;78.00;;;;;;;-1.39;76.06;93793.02;1685202;82;21030;-56
2021/11/02 01:50:13;;;;;;;170.68;74.95;;;;;;;-1.46;76.23;93779.02;1702328;83;21130;-54
2021/11/02 01:52:42;;;;;;;152.57;70.60;;;;;;;-1.47;76.34;93772.06;1710665;83;21426;-54
2021/11/02 01:55:11;;;;;;;171.28;76.62;;;;;;;-1.43;76.42;93770.70;1700085;83;20999;-54
2021/11/02 01:57:41;;;;;;;153.87;71.97;;;;;;;-1.35;76.45;93770.86;1694316;83;21953;-59
2021/11/02 02:00:12;;;;;;;163.32;72.90;;;;;;;-1.32;76.33;93768.70;1686648;83;21023;-54
2021/11/02 02:02:56;;;;;;;165.37;74.17;;;;;;;-1.36;76.47;93766.63;1682936;83;21419;-54
2021/11/02 02:05:43;;;;;;;147.40;65.17;;;;;;;-1.37;76.42;93759.67;1690788;83;20994;-56
2021/11/02 02:08:42;;;;;;;142.72;69.55;;;;;;;-1.37;76.37;93763.72;1695342;83;21022;-53
2021/11/02 02:11:22;;;;;;;161.92;67.67;;;;;;;-1.43;76.31;93769.35;1669403;83;20968;-54
2021/11/02 02:13:58;;;;;;;161.18;70.17;;;;;;;-1.50;76.41;93766.70;1708190;83;20983;-53
2021/11/02 02:16:40;;;;;;;164.25;75.20;;;;;;;-1.48;76.67;93767.08;1691365;83;21827;-54
2021/11/02 02:19:42;;;;;;;;;;;;;;;-1.42;76.70;93763.58;1695918;83;21006;-54
2021/11/02 02:22:47;;;;;;;165.52;61.42;;;;;;;-1.36;76.54;93763.33;1708018;83;20473;-53
2021/11/02 02:25:31;;;;;;;150.50;65.20;;;;;;;-1.28;76.88;93765.41;1707809;83;20950;-54
2021/11/02 02:28:23;;;;;;;153.02;68.10;;;;;;;-1.30;77.17;93777.17;1699292;83;21022;-53
2021/11/02 02:31:06;;;;;;;150.72;62.70;;;;;;;-1.34;76.91;93780.48;1699614;83;21826;-55
2021/11/02 02:33:48;;;;;;;148.13;63.30;;;;;;;-1.45;76.82;93774.37;1696422;83;21442;-54
2021/11/02 02:36:17;;;;;;;117.13;55.75;;;;;;;-1.47;77.47;93760.52;1677652;83;21054;-54
2021/11/02 02:38:46;;;;;;;139.15;61.33;;;;;;;-1.39;78.00;93760.08;1673884;83;21574;-53
2021/11/02 02:41:14;;;;;;;138.62;61.25;;;;;;;-1.23;78.59;93764.97;1693781;83;21002;-53
2021/11/02 02:43:43;;;;;;;136.10;64.20;;;;;;;-1.04;78.60;93761.17;1692778;83;21153;-54
2021/11/02 02:46:12;;;;;;;133.70;61.42;;;;;;;-0.91;78.24;93762.80;1682116;83;21415;-54
2021/11/02 02:48:41;;;;;;;123.62;57.75;;;;;;;-0.83;77.63;93751.55;1695240;83;21572;-53
2021/11/02 02:51:09;;;;;;;131.80;59.93;;;;;;;-0.82;77.21;93749.59;1691304;84;21005;-54
2021/11/02 02:53:37;;;;;;;134.80;62.48;;;;;;;-0.85;76.85;93753.10;1688881;83;21531;-55
2021/11/02 02:56:05;;;;;;;153.25;71.82;;;;;;;-0.90;76.83;93753.54;1683488;83;21127;-54
2021/11/02 02:58:35;;;;;;;165.25;72.03;;;;;;;-0.96;76.69;93749.74;1708223;83;21157;-54
2021/11/02 03:01:05;;;;;;;173.55;77.67;;;;;;;-0.98;76.98;93741.28;1699155;83;21070;-55
2021/11/02 03:03:33;;;;;;;161.95;80.85;;;;;;;-1.02;76.62;93739.17;1710580;83;20971;-53
2021/11/02 03:06:05;;;;;;;152.68;71.75;;;;;;;-1.04;76.93;93737.46;1690002;85;21074;-54
2021/11/02 03:08:38;;;;;;;140.77;67.15;;;;;;;-0.96;77.06;93738.95;1690699;83;21163;-54
2021/11/02 03:11:07;;;;;;;135.03;64.37;;;;;;;-0.85;77.09;93736.91;1704879;83;21049;-54
2021/11/02 03:13:36;;;;;;;114.17;54.75;;;;;;;-0.73;77.36;93739.90;1697334;83;21452;-54
2021/11/02 03:16:06;;;;;;;139.12;65.17;;;;;;;-0.59;76.77;93740.34;1695669;84;21014;-54
2021/11/02 03:43:46;;;;;;;137.00;65.32;;;;;;;-1.24;77.33;93743.20;1697319;83;21070;-55
2021/11/02 03:48:58;;;;;;;156.18;73.67;;;;;;;-1.11;77.01;93736.93;1696966;83;21165;-55
2021/11/02 03:57:01;;;;;;;130.75;61.63;;;;;;;-0.75;76.48;93740.11;1686966;83;20978;-54
2021/11/02 03:59:40;;;;;;;118.42;54.95;;;;;;;-0.70;76.39;93744.50;1704213;83;21414;-55
2021/11/02 04:02:07;;;;;;;114.08;53.73;;;;;;;-0.72;76.37;93741.43;1675384;83;21273;-53
2021/11/02 04:32:07;;;;;;;124.90;63.00;;;;;;;-1.35;76.09;93730.40;1688994;83;21074;-54
2021/11/02 04:45:39;;;;;;;125.82;64.55;;;;;;;-1.14;75.12;93716.75;1652577;85;21143;-53
2021/11/02 05:09:33;;;;;;;169.70;76.75;;;;;;;-1.25;73.53;93718.18;1691347;83;21216;-54
2021/11/02 05:48:21;;;;;;;183.22;82.37;;;;;;;-1.27;73.25;93690.06;1687322;83;20959;-56
2021/11/02 05:51:02;;;;;;;164.77;82.57;;;;;;;-1.26;73.16;93684.84;1699495;84;21170;-55
2021/11/02 05:53:50;;;;;;;159.63;76.97;;;;;;;-1.33;72.63;93690.31;1674805;84;21423;-56
2021/11/02 05:58:37;;;;;;;171.02;75.57;;;;;;;-1.51;72.77;93690.43;1677104;84;21513;-57
2021/11/02 06:01:08;;;;;;;;;;;;;;;;;;;;;
2021/11/02 06:09:13;;;;;;;237.32;103.10;;;;;;;-1.52;73.26;93673.32;1701849;83;21518;-55
2021/11/02 06:23:27;;;;;;;221.18;98.07;;;;;;;-0.96;74.09;93676.88;1708497;83;21058;-56
2021/11/02 06:28:49;;;;;;;206.60;92.82;;;;;;;-0.54;73.65;93667.76;1689160;83;20978;-56
2021/11/02 06:31:29;;;;;;;226.95;115.37;;;;;;;-0.50;73.42;93669.05;1687114;83;21811;-56
2021/11/02 06:39:34;;;;;;;212.97;109.20;;;;;;;-0.50;73.85;93676.58;1665228;84;21563;-56
2021/11/02 06:50:30;;;;;;;199.05;98.97;;;;;;;0.02;74.33;93667.81;1699840;83;21107;-60
2021/11/02 07:10:57;;;;;;;196.78;98.40;;;;;;;0.63;73.16;93658.41;1642229;85;21044;-60
2021/11/02 07:18:05;;;;;;;167.65;87.27;;;;;;;1.35;72.85;93633.19;1655575;83;24415;-56
2021/11/02 08:46:16;;;;;;;34.53;21.82;;;;;;;6.25;64.91;93455.75;1592808;88;21045;-59
2021/11/02 08:48:30;;;;;;;40.30;22.25;;;;;;;6.53;63.91;93453.26;1620479;86;21106;-56
2021/11/02 08:51:00;;;;;;;46.48;24.18;;;;;;;6.85;63.22;93441.77;1634522;85;21095;-58
2021/11/02 08:53:28;;;;;;;38.67;22.80;;;;;;;7.20;62.27;93437.67;1637327;86;21603;-58
2021/11/02 08:55:56;;;;;;;44.13;21.00;;;;;;;7.50;61.13;93433.97;1634313;84;21142;-55
2021/11/02 08:58:27;;;;;;;40.98;21.95;;;;;;;7.70;60.61;93422.53;1626587;85;21088;-58
2021/11/02 09:00:59;;;;;;;38.80;22.80;;;;;;;7.84;59.85;93416.39;1629597;85;21150;-57
2021/11/02 09:03:34;;;;;;;38.35;22.22;;;;;;;7.97;59.52;93411.48;1616437;85;21133;-56
2021/11/02 09:06:03;;;;;;;29.50;19.65;;;;;;;8.06;59.38;93403.98;1621090;86;21515;-58
2021/11/02 09:08:31;;;;;;;29.20;19.35;;;;;;;8.23;59.44;93393.45;1603501;86;21139;-61
2021/11/02 09:11:00;;;;;;;28.87;20.48;;;;;;;8.36;59.19;93377.53;1602378;86;21188;-58
2021/11/02 09:13:28;;;;;;;30.97;20.65;;;;;;;8.51;58.67;93379.73;1635116;85;21159;-59
2021/11/02 09:16:00;;;;;;;48.52;27.93;;;;;;;8.61;58.27;93369.61;1626889;85;21105;-66
2021/11/02 09:18:33;;;;;;;45.40;26.27;;;;;;;8.75;58.15;93365.39;1631976;85;21071;-62
2021/11/02 09:21:02;;;;;;;33.70;21.57;;;;;;;8.91;57.95;93358.88;1609553;86;21131;-60
2021/11/02 09:23:28;;;;;;;35.08;21.90;;;;;;;9.08;57.46;93344.87;1593332;87;21007;-61
2021/11/02 09:26:02;;;;;;;29.40;18.32;;;;;;;9.31;56.87;93351.66;1648260;85;22678;-59
2021/11/02 09:28:30;;;;;;;27.07;17.25;;;;;;;9.56;55.77;93350.31;1621123;85;38633;-59
2021/11/02 09:30:57;;;;;;;28.47;17.35;;;;;;;9.76;55.08;93346.30;1623129;86;21149;-58
2021/11/02 09:33:25;;;;;;;25.90;16.15;;;;;;;9.91;54.46;93347.02;1633388;84;21037;-57
2021/11/02 09:36:04;;;;;;;28.02;18.27;;;;;;;10.07;53.73;93343.19;1628583;84;21133;-60
2021/11/02 09:38:37;;;;;;;21.90;15.55;;;;;;;10.42;53.69;93328.83;1628200;85;21331;-55
2021/11/02 09:41:16;;;;;;;28.17;15.75;;;;;;;11.19;52.29;93333.23;1609403;87;21190;-59
2021/11/02 09:44:11;;;;;;;24.32;14.95;;;;;;;11.88;50.16;93331.52;1610153;86;21163;-63
2021/11/02 09:46:51;;;;;;;21.77;13.40;;;;;;;12.48;48.60;93321.52;1615278;87;21899;-61
2021/11/02 09:49:47;;;;;;;17.60;12.10;;;;;;;13.29;46.63;93309.97;1630764;86;21502;-60
2021/11/02 09:53:10;;;;;;;20.10;13.15;;;;;;;14.00;44.71;93312.05;1616686;85;21105;-55
2021/11/02 09:56:04;;;;;;;23.27;13.20;;;;;;;14.40;43.71;93301.85;1625096;86;21675;-55
2021/11/02 09:59:09;;;;;;;31.95;15.43;;;;;;;14.78;42.39;93301.77;1629189;85;21062;-56
2021/11/02 10:01:49;;;;;;;26.48;16.75;;;;;;;15.00;42.04;93299.64;1632684;85;21162;-58
2021/11/02 10:04:51;;;;;;;31.33;18.92;;;;;;;15.12;41.80;93294.19;1608516;86;21219;-58
2021/11/02 10:07:50;;;;;;;50.65;25.70;;;;;;;15.10;41.88;93288.41;1633363;85;21993;-60
2021/11/02 10:10:21;;;;;;;46.92;24.82;;;;;;;15.24;41.77;93281.02;1638929;85;21075;-57
2021/11/02 10:13:11;;;;;;;35.13;21.30;;;;;;;15.47;40.82;93286.58;1630069;86;21030;-60
2021/11/02 10:16:07;;;;;;;37.42;22.52;;;;;;;15.65;40.44;93278.41;1616698;86;21089;-59
2021/11/02 10:19:33;;;;;;;39.95;18.73;;;;;;;16.13;39.57;93266.03;1622142;86;21042;-58
2021/11/02 10:22:32;;;;;;;40.40;19.60;;;;;;;16.62;38.82;93260.03;1597845;88;21155;-58
2021/11/02 10:25:13;;;;;;;23.38;15.72;;;;;;;17.06;37.60;93255.98;1629724;85;21126;-59
2021/11/02 10:27:55;;;;;;;30.72;18.95;;;;;;;17.39;36.60;93254.16;1634411;84;21085;-57
2021/11/02 10:30:49;;;;;;;25.52;16.25;;;;;;;17.70;36.32;93239.56;1630095;86;21072;-56
2021/11/02 10:33:25;;;;;;;33.90;17.45;;;;;;;18.27;36.00;93231.31;1609580;86;21467;-60
2021/11/02 10:35:57;;;;;;;33.25;16.30;;;;;;;18.94;34.48;93232.30;1578415;89;21254;-62
2021/11/02 10:38:50;;;;;;;22.32;13.35;;;;;;;19.43;33.86;93224.97;1640393;84;21254;-58
2021/11/02 10:41:29;;;;;;;18.40;11.83;;;;;;;19.84;32.41;93220.84;1613818;86;21039;-61
2021/11/02 10:44:18;;;;;;;21.55;13.75;;;;;;;20.10;31.60;93227.72;1616842;87;21589;-59
2021/11/02 10:47:06;;;;;;;20.25;12.78;;;;;;;20.58;31.53;93222.81;1633125;86;21067;-57
2021/11/02 10:49:39;;;;;;;23.32;16.62;;;;;;;21.44;31.00;93222.95;1621522;86;21189;-61
2021/11/02 10:52:11;;;;;;;22.93;13.78;;;;;;;22.39;29.25;93220.98;1632002;86;21124;-60
2021/11/02 10:54:51;;;;;;;21.95;13.20;;;;;;;23.11;27.50;93217.84;1622939;85;21093;-57
2021/11/02 10:57:52;;;;;;;26.73;13.93;;;;;;;23.29;26.70;93212.47;1636253;85;21216;-58
2021/11/02 11:00:20;;;;;;;18.87;13.60;;;;;;;23.30;26.97;93208.34;1623375;85;21097;-59
2021/11/02 11:02:48;;;;;;;18.40;11.68;;;;;;;23.74;26.75;93206.65;1636656;85;21747;-62
2021/11/02 11:05:16;;;;;;;20.37;12.33;;;;;;;24.10;26.33;93206.39;1628314;86;21584;-60
2021/11/02 11:07:44;;;;;;;17.48;12.25;;;;;;;24.15;25.39;93200.44;1629231;86;21110;-61
2021/11/02 11:10:13;;;;;;;21.93;13.03;;;;;;;23.98;25.88;93188.48;1611548;86;21082;-60
2021/11/02 11:12:54;;;;;;;16.07;11.75;;;;;;;23.61;26.41;93190.72;1618074;86;21185;-58
2021/11/02 11:15:24;;;;;;;20.45;12.43;;;;;;;23.27;26.35;93196.85;1601286;89;21167;-60
2021/11/02 11:17:54;;;;;;;21.95;14.23;;;;;;;22.87;26.11;93187.55;1637082;86;21088;-62
2021/11/02 11:20:23;;;;;;;20.70;14.47;;;;;;;22.42;26.22;93182.02;1625977;86;21115;-60
2021/11/02 11:22:54;;;;;;;22.55;15.72;;;;;;;21.84;26.70;93189.05;1634223;86;21115;-58
2021/11/02 11:25:51;;;;;;;16.52;11.97;;;;;;;21.34;28.00;93191.20;1636577;86;21063;-56
2021/11/02 11:28:19;;;;;;;34.38;19.92;;;;;;;21.11;28.76;93188.30;1619176;86;23296;-60
2021/11/02 11:30:46;;;;;;;24.27;15.05;;;;;;;21.09;29.00;93184.58;1641678;86;21405;-57
2021/11/02 11:33:16;;;;;;;25.27;12.82;;;;;;;21.32;28.36;93186.80;1629809;86;21074;-59
2021/11/02 11:35:43;;;;;;;20.50;10.43;;;;;;;21.63;28.28;93182.84;1618700;87;21016;-60
2021/11/02 11:38:12;;;;;;;17.37;10.28;;;;;;;21.94;27.04;93168.34;1610784;87;21072;-59
2021/11/02 11:40:44;;;;;;;14.68;10.30;;;;;;;22.02;26.79;93168.34;1625559;86;21152;-59
2021/11/02 11:43:11;;;;;;;13.77;8.07;;;;;;;22.00;26.37;93169.56;1637021;86;21097;-60
2021/11/02 11:45:46;;;;;;;12.05;8.73;;;;;;;21.61;26.45;93167.20;1638905;86;21028;-61
2021/11/02 11:48:21;;;;;;;17.92;8.78;;;;;;;21.00;26.67;93162.70;1642851;86;21632;-57
2021/11/02 11:50:48;;;;;;;22.95;10.18;;;;;;;20.20;27.32;93163.13;1593623;86;21841;-60
2021/11/02 11:53:17;;;;;;;15.85;8.70;;;;;;;19.39;28.24;93155.46;1625763;85;21217;-58
2021/11/02 11:55:48;;;;;;;19.82;10.68;;;;;;;18.69;29.03;93160.00;1589637;88;21076;-55
2021/11/02 11:58:22;;;;;;;20.77;13.25;;;;;;;18.10;29.92;93153.52;1641231;85;21054;-58
2021/11/02 12:01:05;;;;;;;27.60;16.45;;;;;;;17.70;31.14;93154.73;1648798;86;21051;-63
2021/11/02 12:03:55;;;;;;;43.85;23.67;;;;;;;17.35;32.12;93149.47;1585883;87;21086;-62
2021/11/02 12:06:36;;;;;;;47.33;26.75;;;;;;;17.09;32.98;93147.30;1621645;85;21106;-63
2021/11/02 12:09:08;;;;;;;42.00;25.05;;;;;;;16.90;33.72;93141.66;1618592;86;21680;-58
2021/11/02 12:11:36;;;;;;;34.60;19.52;;;;;;;16.63;34.03;93142.77;1630470;85;21053;-58
2021/11/02 12:14:20;;;;;;;27.52;15.65;;;;;;;16.35;34.45;93143.10;1633971;86;21521;-60
2021/11/02 12:16:50;;;;;;;25.32;15.60;;;;;;;16.13;34.73;93138.41;1620934;86;21159;-59
2021/11/02 12:19:38;;;;;;;26.57;17.12;;;;;;;15.94;35.23;93144.53;1619976;86;21151;-64
2021/11/02 12:22:09;;;;;;;35.90;25.80;;;;;;;15.76;35.79;93153.53;1638242;85;21129;-61
2021/11/02 12:24:38;;;;;;;31.30;18.67;;;;;;;15.50;36.42;93151.89;1614828;87;21078;-61
2021/11/02 12:27:17;;;;;;;23.67;14.45;;;;;;;15.29;36.77;93157.73;1634056;85;21072;-61
2021/11/02 12:29:44;;;;;;;19.48;12.82;;;;;;;15.14;36.98;93157.30;1651341;84;21055;-60
2021/11/02 12:32:13;;;;;;;19.07;10.90;;;;;;;15.06;36.93;93149.44;1619630;84;21202;-63
2021/11/02 12:34:48;;;;;;;21.15;13.25;;;;;;;14.98;37.06;93149.86;1622564;86;21807;-62
2021/11/02 12:37:18;;;;;;;20.37;13.40;;;;;;;14.91;37.55;93160.73;1618667;85;21055;-62
2021/11/02 12:39:46;;;;;;;25.43;15.70;;;;;;;14.78;37.79;93157.16;1608970;87;21219;-63
2021/11/02 12:42:13;;;;;;;26.85;13.88;;;;;;;14.64;38.19;93156.84;1622466;85;21035;-61
2021/11/02 12:44:40;;;;;;;40.95;22.00;;;;;;;14.46;39.19;93158.82;1610451;86;21519;-56
2021/11/02 12:47:12;;;;;;;47.53;23.57;;;;;;;14.29;40.02;93167.08;1609299;85;21092;-66
2021/11/02 12:50:00;;;;;;;49.00;25.72;;;;;;;14.14;40.24;93166.59;1627102;86;21143;-67
2021/11/02 12:52:30;;;;;;;57.00;27.35;;;;;;;14.05;40.12;93164.13;1626253;85;21556;-68
2021/11/02 12:55:04;;;;;;;53.63;31.20;;;;;;;13.99;40.14;93173.69;1627902;86;21081;-60
2021/11/02 12:57:43;;;;;;;69.62;37.93;;;;;;;13.91;40.22;93174.83;1623456;85;21173;-54
2021/11/02 13:00:28;;;;;;;66.82;37.78;;;;;;;13.84;40.27;93174.59;1629298;85;21075;-56
2021/11/02 13:03:05;;;;;;;58.80;32.90;;;;;;;13.76;40.29;93179.87;1618922;86;21095;-65
2021/11/02 13:05:35;;;;;;;57.93;31.85;;;;;;;13.68;40.11;93183.05;1614541;87;21369;-65
2021/11/02 13:08:12;;;;;;;84.40;42.58;;;;;;;13.61;40.00;93172.48;1634876;84;21061;-62
2021/11/02 13:10:42;;;;;;;95.53;49.73;;;;;;;13.58;39.99;93187.92;1602615;86;21201;-62
2021/11/02 13:13:15;;;;;;;83.45;46.73;;;;;;;13.51;40.39;93191.98;1627518;87;21090;-59
2021/11/02 13:15:58;;;;;;;75.25;41.60;;;;;;;13.45;40.80;93192.58;1641957;85;22285;-58
2021/11/02 13:18:37;;;;;;;297.60;113.00;;;;;;;13.38;41.34;93197.85;1620050;86;21438;-60
2021/11/02 13:21:30;;;;;;;287.88;108.05;;;;;;;13.33;42.96;93198.61;1631968;85;21833;-59
2021/11/02 13:24:12;;;;;;;146.62;61.68;;;;;;;13.21;43.34;93202.61;1603960;87;22014;-60
2021/11/02 13:26:48;;;;;;;115.92;46.95;;;;;;;13.09;45.08;93199.73;1611280;87;21594;-60
2021/11/02 13:29:23;;;;;;;102.65;45.10;;;;;;;12.98;45.65;93195.56;1626199;86;21140;-59
2021/11/02 13:31:54;;;;;;;61.10;32.38;;;;;;;12.91;45.78;93197.41;1620399;87;21089;-59
2021/11/02 13:34:37;;;;;;;40.85;25.92;;;;;;;12.83;45.41;93181.97;1616533;86;21879;-60
2021/11/02 13:37:15;;;;;;;36.88;22.52;;;;;;;12.76;45.76;93187.22;1626828;86;21613;-58
2021/11/02 13:40:00;;;;;;;47.55;25.70;;;;;;;12.65;46.12;93187.17;1600727;87;21662;-54
2021/11/02 13:42:50;;;;;;;56.63;28.30;;;;;;;12.55;46.34;93184.53;1627283;86;21581;-59
2021/11/02 13:45:22;;;;;;;64.75;36.38;;;;;;;12.45;46.46;93183.23;1615088;87;21048;-59
2021/11/02 13:47:51;;;;;;;40.50;26.48;;;;;;;12.37;46.57;93178.69;1629001;85;21057;-61
2021/11/02 13:50:18;;;;;;;42.70;25.50;;;;;;;12.28;46.89;93172.77;1628706;85;21140;-61
2021/11/02 13:52:46;;;;;;;44.45;27.45;;;;;;;12.22;47.06;93189.91;1604549;87;21018;-62
2021/11/02 13:55:13;;;;;;;50.58;27.10;;;;;;;12.14;47.18;93183.38;1602143;86;20993;-58
2021/11/02 13:57:40;;;;;;;62.78;30.40;;;;;;;12.08;47.37;93180.46;1625035;86;21140;-59
2021/11/02 14:00:08;;;;;;;66.25;33.30;;;;;;;12.01;47.71;93185.81;1610710;87;21087;-56
2021/11/02 14:02:40;;;;;;;121.05;60.35;;;;;;;11.93;48.11;93190.91;1630169;85;21258;-60
2021/11/02 14:05:09;;;;;;;140.20;73.12;;;;;;;11.88;49.44;93191.00;1632659;85;21590;-61
2021/11/02 14:07:36;;;;;;;140.55;76.50;;;;;;;11.80;50.65;93186.44;1626902;85;21098;-63
2021/11/02 14:10:08;;;;;;;140.97;75.87;;;;;;;11.69;51.39;93194.02;1605048;86;21378;-61
2021/11/02 14:12:53;;;;;;;150.60;80.10;;;;;;;11.62;51.93;93190.34;1615688;86;21147;-60
2021/11/02 14:15:22;;;;;;;158.85;76.37;;;;;;;11.55;52.16;93197.64;1608640;86;21215;-62
2021/11/02 14:18:05;;;;;;;154.10;80.80;;;;;;;11.44;52.56;93193.44;1609878;86;21622;-60
2021/11/02 14:20:49;;;;;;;143.90;74.75;;;;;;;11.34;52.75;93200.36;1621697;86;21166;-59
2021/11/02 14:23:17;;;;;;;;;;;;;;;11.25;53.07;93196.42;1605696;86;21629;-61
2021/11/02 14:25:44;;;;;;;116.08;57.38;;;;;;;11.18;53.35;93202.99;1633406;85;20217;-60
2021/11/02 14:28:11;;;;;;;125.50;62.20;;;;;;;11.10;53.69;93199.16;1631718;85;21149;-60
2021/11/02 14:30:43;;;;;;;146.77;70.70;;;;;;;11.05;53.88;93201.24;1634726;85;21118;-58
2021/11/02 14:33:11;;;;;;;158.05;77.40;;;;;;;10.97;54.12;93199.55;1625533;85;21089;-57
2021/11/02 14:36:03;;;;;;;146.18;74.37;;;;;;;10.88;54.63;93199.73;1623305;85;21149;-58
2021/11/02 14:38:46;;;;;;;128.07;66.10;;;;;;;10.82;54.92;93204.41;1619642;86;23191;-61
2021/11/02 14:41:34;;;;;;;132.45;65.17;;;;;;;10.78;55.15;93198.37;1619923;86;21778;-59
2021/11/02 14:44:27;;;;;;;116.45;58.78;;;;;;;10.72;55.28;93202.30;1628472;86;21610;-61
2021/11/02 14:46:59;;;;;;;112.05;55.65;;;;;;;10.67;55.50;93202.23;1600019;87;21076;-68
2021/11/02 14:49:36;;;;;;;115.03;57.20;;;;;;;10.61;55.63;93204.19;1609719;87;21189;-66
2021/11/02 14:52:06;;;;;;;110.42;59.85;;;;;;;10.60;55.73;93199.32;1628191;86;21055;-60
2021/11/02 14:54:44;;;;;;;194.55;93.52;;;;;;;10.59;56.46;93209.41;1630356;86;21141;-65
2021/11/02 14:57:27;;;;;;;538.80;255.67;;;;;;;10.50;56.74;93206.83;1629831;85;21646;-61
2021/11/02 14:59:58;;;;;;;404.42;190.95;;;;;;;10.42;56.97;93201.00;1628048;86;21064;-59
2021/11/02 15:02:41;;;;;;;322.52;154.82;;;;;;;10.35;57.08;93213.03;1614227;87;21097;-59
2021/11/02 15:05:10;;;;;;;;;;;;;;;10.26;57.85;93211.78;1620496;86;21129;-56
2021/11/02 15:07:46;;;;;;;369.60;185.37;;;;;;;10.14;58.85;93210.16;1617939;86;21118;-60
2021/11/02 15:10:17;;;;;;;411.50;214.38;;;;;;;10.01;59.79;93201.46;1616860;86;21045;-58
2021/11/02 15:12:44;;;;;;;426.30;222.98;;;;;;;9.96;60.54;93201.52;1615164;86;21112;-56
2021/11/02 15:15:12;;;;;;;399.15;202.07;;;;;;;9.91;61.52;93198.70;1624255;86;21051;-60
2021/11/02 15:17:39;;;;;;;376.35;190.85;;;;;;;9.88;62.42;93204.55;1592096;85;21157;-61
2021/11/02 15:20:07;;;;;;;484.85;259.87;;;;;;;9.85;63.48;93205.52;1630616;84;21139;-59
2021/11/02 15:22:34;;;;;;;409.43;209.92;;;;;;;9.82;64.00;93212.57;1621285;86;21065;-57
2021/11/02 15:25:04;;;;;;;391.12;202.62;;;;;;;9.75;64.51;93212.95;1611541;87;21475;-58
2021/11/02 15:27:34;;;;;;;311.52;160.55;;;;;;;9.68;64.69;93213.37;1613692;86;21049;-57
2021/11/02 15:30:09;;;;;;;303.42;162.03;;;;;;;9.62;65.10;93220.78;1619750;86;21030;-63
2021/11/02 15:32:42;;;;;;;151.05;79.17;;;;;;;9.57;66.31;93217.31;1644735;86;21153;-61
2021/11/02 15:35:13;;;;;;;135.25;70.70;;;;;;;9.56;67.29;93216.57;1634856;86;21590;-58
2021/11/02 15:37:47;;;;;;;185.88;96.67;;;;;;;9.54;68.23;93222.39;1635676;86;21165;-57
2021/11/02 15:40:16;;;;;;;;;;;;;;;9.47;69.09;93224.17;1640200;85;21073;-57
2021/11/02 15:42:48;;;;;;;243.60;122.75;;;;;;;9.39;69.56;93224.41;1621979;86;20529;-56
2021/11/02 15:45:30;;;;;;;235.72;119.65;;;;;;;9.33;70.17;93227.69;1607505;87;22193;-58
2021/11/02 15:47:52;;;;;;;321.25;163.80;;;;;;;9.31;70.69;93241.13;1596627;88;21576;-57
2021/11/02 15:50:23;;;;;;;386.77;203.52;;;;;;;9.16;71.19;93239.01;1607388;87;21130;-59
2021/11/02 15:52:58;;;;;;;392.00;203.65;;;;;;;9.00;71.82;93232.63;1596205;88;21056;-56
2021/11/02 15:55:27;;;;;;;383.05;196.18;;;;;;;8.96;72.31;93236.18;1627842;86;21550;-58
2021/11/02 15:58:01;;;;;;;342.62;168.37;;;;;;;8.96;72.76;93226.58;1635222;86;21547;-59
2021/11/02 16:00:37;;;;;;;318.73;156.78;;;;;;;8.97;73.52;93222.61;1627821;86;21027;-60
2021/11/02 16:03:04;;;;;;;293.42;141.80;;;;;;;9.03;74.21;93225.59;1616673;87;21037;-58
2021/11/02 16:05:34;;;;;;;372.98;186.25;;;;;;;9.12;74.49;93224.73;1618695;87;21023;-58
2021/11/02 16:08:03;;;;;;;244.82;122.70;;;;;;;9.14;74.52;93221.67;1621854;87;21080;-57
2021/11/02 16:10:33;;;;;;;305.02;139.10;;;;;;;9.12;74.61;93219.25;1616450;87;21016;-57
2021/11/02 16:21:34;;;;;;;265.40;130.00;;;;;;;8.80;75.86;93203.74;1775860;79;25972;-60
2021/11/02 16:24:11;;;;;;;252.25;127.22;;;;;;;8.74;75.87;93202.91;1739676;81;20950;-58
2021/11/02 16:26:41;;;;;;;181.30;95.22;;;;;;;8.73;76.33;93208.24;1718739;82;21200;-57
2021/11/02 16:29:13;;;;;;;144.13;76.57;;;;;;;8.76;76.65;93203.19;1737504;82;20863;-57
2021/11/02 16:31:41;;;;;;;147.07;78.28;;;;;;;8.78;76.59;93200.72;1738588;82;20935;-57